Time;durP1;ratioP1;P1;durP2;ratioP2;P2;SDS_P1;SDS_P2;PMS_P1;PMS_P2;Temp;Humidity;BMP_temperature;BMP_pressure;BME280_temperature;BME280_humidity;BME280_pressure;Samples;Min_cycle;Max_cycle;Signal;HPM_P1;HPM_P2
2022/06/18 00:00:23;;;;;;;2.17;1.90;;;19.00;1.00;;;;;;5031699;28;20630;-75
2022/06/18 00:02:48;;;;;;;6.57;2.27;;;19.00;1.00;;;;;;5033138;28;20271;-75
2022/06/18 00:05:16;;;;;;;4.73;2.03;;;19.00;1.00;;;;;;5032871;28;20208;-75
2022/06/18 00:07:48;;;;;;;2.63;2.00;;;19.00;1.00;;;;;;5032777;28;20714;-74
2022/06/18 00:10:16;;;;;;;4.47;2.20;;;19.00;1.00;;;;;;5032614;28;20194;-74
2022/06/18 00:15:38;;;;;;;2.93;2.13;;;19.00;1.00;;;;;;5031765;28;20252;-75
2022/06/18 00:18:11;;;;;;;4.77;2.27;;;19.00;1.00;;;;;;5033063;28;20161;-74
2022/06/18 00:20:38;;;;;;;3.33;1.97;;;19.00;1.00;;;;;;5032955;28;20673;-74
2022/06/18 00:23:10;;;;;;;4.40;2.43;;;19.10;1.00;;;;;;5032743;28;20180;-74
2022/06/18 00:25:38;;;;;;;2.60;2.30;;;19.00;99.90;;;;;;5032988;28;20164;-74
2022/06/18 00:28:11;;;;;;;3.83;2.07;;;19.00;99.90;;;;;;5031414;28;20181;-74
2022/06/18 00:30:38;;;;;;;2.77;2.10;;;19.00;1.00;;;;;;5032539;28;20212;-75
2022/06/18 00:33:04;;;;;;;4.13;1.90;;;19.00;1.00;;;;;;5032743;28;20171;-76
2022/06/18 00:35:29;;;;;;;2.23;2.03;;;19.10;1.00;;;;;;5031405;28;20176;-74
2022/06/18 00:37:58;;;;;;;4.80;1.90;;;19.10;99.90;;;;;;5032831;28;20496;-75
2022/06/18 00:40:31;;;;;;;3.93;1.90;;;19.10;53.70;;;;;;5032506;28;20188;-75
2022/06/18 00:43:04;;;;;;;4.07;2.10;;;19.10;24.40;;;;;;5032744;28;20157;-75
2022/06/18 00:45:30;;;;;;;3.33;2.07;;;19.20;99.90;;;;;;5032678;28;20778;-75
2022/06/18 00:48:09;;;;;;;3.43;1.90;;;19.10;1.00;;;;;;5032523;28;20549;-74
2022/06/18 00:50:46;;;;;;;7.27;2.23;;;19.10;19.80;;;;;;5032330;28;20207;-74
2022/06/18 00:53:31;;;;;;;3.97;2.10;;;19.10;99.90;;;;;;5031265;28;20198;-75
2022/06/18 00:56:06;;;;;;;10.87;2.40;;;19.00;1.00;;;;;;5031206;28;20169;-75
2022/06/18 00:58:38;;;;;;;2.20;2.00;;;19.00;1.00;;;;;;5034866;28;20635;-75
2022/06/18 01:01:13;;;;;;;3.43;2.10;;;19.00;1.00;;;;;;5036187;28;20612;-74
2022/06/18 01:03:39;;;;;;;6.53;2.40;;;19.00;1.00;;;;;;5036408;28;20168;-75
2022/06/18 01:06:15;;;;;;;5.43;2.00;;;19.00;1.00;;;;;;5036135;28;20279;-75
2022/06/18 01:08:41;;;;;;;4.63;2.33;;;18.90;1.00;;;;;;5036355;28;20153;-75
2022/06/18 01:11:17;;;;;;;5.60;2.67;;;18.90;99.90;;;;;;5060550;23;20220;-77
2022/06/18 01:13:43;;;;;;;4.23;2.30;;;18.90;99.90;;;;;;5038124;28;20168;-78
2022/06/18 01:16:10;;;;;;;6.13;2.03;;;18.80;99.90;;;;;;5020030;28;20190;-77
2022/06/18 01:18:38;;;;;;;4.07;2.33;;;18.80;99.90;;;;;;5038023;28;20168;-78
2022/06/18 01:21:26;;;;;;;11.60;2.70;;;18.80;99.90;;;;;;5019882;28;20261;-78
2022/06/18 01:24:15;;;;;;;3.10;1.90;;;18.80;99.90;;;;;;5020245;28;20222;-78
2022/06/18 01:26:43;;;;;;;8.03;2.13;;;18.80;16.10;;;;;;5020353;28;20199;-76
2022/06/18 01:29:09;;;;;;;3.10;2.30;;;18.90;1.00;;;;;;5019838;28;20596;-77
2022/06/18 01:31:35;;;;;;;3.77;2.20;;;18.80;99.90;;;;;;5019468;28;20204;-78
2022/06/18 01:34:01;;;;;;;5.57;2.23;;;18.90;1.00;;;;;;5037853;28;20176;-79
2022/06/18 01:36:31;;;;;;;3.23;2.20;;;18.80;99.90;;;;;;5036370;28;20252;-78
2022/06/18 01:38:57;;;;;;;3.03;2.20;;;18.80;99.90;;;;;;5018417;28;20653;-76
2022/06/18 01:44:47;;;;;;;5.40;2.20;;;19.10;1.00;;;;;;5036586;28;20183;-77
2022/06/18 01:47:24;;;;;;;4.27;2.30;;;19.00;1.00;;;;;;5018820;28;20518;-77
2022/06/18 01:49:53;;;;;;;4.37;2.13;;;19.00;90.70;;;;;;5035933;28;20164;-77
2022/06/18 01:52:23;;;;;;;3.30;2.00;;;19.00;1.00;;;;;;5018140;28;20214;-78
2022/06/18 01:54:54;;;;;;;3.30;1.90;;;19.00;1.00;;;;;;5036036;28;20164;-78
2022/06/18 01:57:28;;;;;;;3.47;1.70;;;19.00;99.90;;;;;;5036313;28;20183;-78
2022/06/18 02:00:00;;;;;;;3.53;1.70;;;19.00;99.90;;;;;;5018344;28;20171;-78
2022/06/18 02:02:26;;;;;;;5.33;2.20;;;19.10;50.20;;;;;;5035845;28;20308;-77
2022/06/18 02:04:51;;;;;;;4.20;2.10;;;19.10;10.10;;;;;;5018004;28;20176;-77
2022/06/18 02:07:18;;;;;;;5.83;2.07;;;19.10;99.90;;;;;;5036070;28;20650;-78
2022/06/18 02:09:50;;;;;;;4.30;2.20;;;19.10;99.90;;;;;;5018298;28;20180;-77
2022/06/18 02:12:27;;;;;;;3.17;2.20;;;19.00;1.00;;;;;;5017929;28;20280;-78
2022/06/18 02:15:00;;;;;;;5.17;2.03;;;19.00;1.00;;;;;;5035708;28;20167;-77
2022/06/18 02:17:27;;;;;;;4.60;2.03;;;19.00;1.00;;;;;;5035482;28;20615;-78
2022/06/18 02:20:01;;;;;;;2.83;1.80;;;19.00;1.00;;;;;;5035744;28;20171;-78
2022/06/18 02:22:33;;;;;;;2.83;2.30;;;19.00;1.00;;;;;;5035342;28;20203;-78
2022/06/18 02:24:59;;;;;;;6.93;2.33;;;19.00;1.00;;;;;;5035774;28;20160;-77
2022/06/18 02:27:25;;;;;;;5.30;2.07;;;19.00;99.90;;;;;;5035676;28;20573;-77
2022/06/18 02:29:51;;;;;;;5.33;2.10;;;19.00;99.90;;;;;;5047875;28;20169;-77
2022/06/18 02:32:35;;;;;;;3.30;2.00;;;19.00;99.90;;;;;;5053510;28;20204;-77
2022/06/18 02:35:01;;;;;;;5.37;1.90;;;19.00;1.00;;;;;;5035754;28;20169;-79
2022/06/18 02:37:30;;;;;;;3.13;2.40;;;19.00;99.90;;;;;;5018304;28;20203;-78
2022/06/18 02:40:00;;;;;;;4.93;1.90;;;19.00;99.90;;;;;;5018369;28;20184;-78
2022/06/18 02:42:34;;;;;;;3.13;2.10;;;18.90;99.90;;;;;;5044551;28;20200;-77
2022/06/18 02:45:03;;;;;;;4.57;2.13;;;19.00;59.80;;;;;;5049453;28;20170;-77
2022/06/18 02:47:28;;;;;;;4.83;1.90;;;18.90;99.90;;;;;;5049849;28;20175;-78
2022/06/18 02:49:59;;;;;;;3.37;2.20;;;18.90;99.90;;;;;;5048696;28;20200;-78
2022/06/18 02:52:30;;;;;;;3.20;1.87;;;18.80;1.00;;;;;;5048215;28;20212;-77
2022/06/18 02:55:25;;;;;;;2.80;2.00;;;18.70;99.90;;;;;;5049023;28;20167;-77
2022/06/18 02:58:10;;;;;;;2.60;2.17;;;18.60;1.00;;;;;;5048972;28;20156;-77
2022/06/18 03:00:37;;;;;;;5.50;2.10;;;18.60;1.00;;;;;;5042707;28;20192;-79
2022/06/18 03:03:08;;;;;;;2.63;2.00;;;18.50;99.90;;;;;;5048039;28;20192;-77
2022/06/18 03:05:34;;;;;;;4.50;2.43;;;18.40;99.90;;;;;;5033161;28;20184;-76
2022/06/18 03:08:00;;;;;;;3.00;2.10;;;18.40;1.00;;;;;;5044915;28;20184;-79
2022/06/18 03:13:09;;;;;;;3.47;2.50;;;18.40;99.90;;;;;;5037693;28;20187;-79
2022/06/18 03:15:35;;;;;;;4.00;2.47;;;18.40;99.90;;;;;;5019202;28;20176;-78
2022/06/18 03:18:01;;;;;;;7.57;2.40;;;18.40;99.90;;;;;;5037019;28;20171;-78
2022/06/18 03:21:06;;;;;;;4.33;2.40;;;18.40;1.00;;;;;;5036495;28;20168;-79
2022/06/18 03:23:32;;;;;;;5.93;1.83;;;18.40;99.90;;;;;;5019108;28;20668;-78
2022/06/18 03:25:58;;;;;;;4.43;1.97;;;18.40;99.90;;;;;;5036344;28;20267;-78
2022/06/18 03:28:26;;;;;;;4.50;2.17;;;18.40;99.90;;;;;;5037428;28;20261;-78
2022/06/18 03:30:52;;;;;;;4.77;2.10;;;18.40;99.90;;;;;;5018510;28;20296;-79
2022/06/18 03:33:18;;;;;;;2.70;1.83;;;18.40;1.00;;;;;;5035264;28;20226;-78
2022/06/18 03:35:47;;;;;;;5.13;2.53;;;18.40;99.90;;;;;;5036194;28;20169;-78
2022/06/18 03:38:14;;;;;;;4.03;1.80;;;18.40;99.90;;;;;;5036910;28;20175;-78
2022/06/18 03:40:40;;;;;;;3.20;1.90;;;18.50;24.40;;;;;;5036627;28;20192;-78
2022/06/18 03:43:06;;;;;;;4.03;2.10;;;18.50;1.00;;;;;;5018040;28;20666;-78
2022/06/18 03:45:37;;;;;;;3.30;2.33;;;18.50;99.90;;;;;;5035379;28;20207;-79
2022/06/18 03:48:04;;;;;;;5.00;2.33;;;18.60;99.90;;;;;;5036523;28;20156;-77
2022/06/18 03:50:30;;;;;;;2.20;1.70;;;18.60;99.90;;;;;;5017903;28;20203;-78
2022/06/18 03:52:55;;;;;;;4.37;1.97;;;18.60;99.90;;;;;;5036079;28;20196;-79
2022/06/18 03:55:21;;;;;;;3.77;2.17;;;18.60;1.00;;;;;;5018486;28;20184;-78
2022/06/18 03:57:47;;;;;;;3.47;2.17;;;18.60;1.00;;;;;;5035820;28;20614;-78
2022/06/18 04:00:22;;;;;;;2.80;1.70;;;18.60;1.00;;;;;;5016934;28;20168;-78
2022/06/18 04:02:48;;;;;;;3.70;2.10;;;18.70;1.00;;;;;;5034224;28;20155;-78
2022/06/18 04:05:14;;;;;;;4.43;2.07;;;18.70;1.00;;;;;;5033909;28;20259;-78
2022/06/18 04:07:41;;;;;;;5.97;1.80;;;18.80;99.90;;;;;;5016589;28;20168;-78
2022/06/18 04:10:08;;;;;;;7.03;2.07;;;18.70;1.00;;;;;;5015959;28;20179;-78
2022/06/18 04:12:34;;;;;;;2.13;1.70;;;18.70;1.00;;;;;;5033675;28;20244;-77
2022/06/18 04:15:00;;;;;;;3.93;2.10;;;18.70;1.00;;;;;;5033698;28;20648;-78
2022/06/18 04:17:25;;;;;;;2.47;1.80;;;18.70;1.00;;;;;;5033815;28;20180;-78
2022/06/18 04:19:51;;;;;;;5.17;2.07;;;18.70;28.40;;;;;;5033524;28;20171;-77
2022/06/18 04:22:17;;;;;;;2.53;1.90;;;18.70;12.50;;;;;;5034016;28;20626;-77
2022/06/18 04:24:42;;;;;;;3.67;2.07;;;18.80;9.10;;;;;;5015782;28;20275;-78
2022/06/18 04:27:08;;;;;;;4.23;2.00;;;18.70;48.20;;;;;;5033158;28;20693;-78
2022/06/18 04:29:34;;;;;;;2.87;2.10;;;18.90;99.90;;;;;;5015724;28;20180;-78
2022/06/18 04:32:00;;;;;;;4.80;2.07;;;18.90;44.30;;;;;;5033423;28;20286;-78
2022/06/18 04:34:26;;;;;;;2.43;1.90;;;18.90;1.00;;;;;;5019789;28;20606;-77
2022/06/18 04:36:51;;;;;;;3.97;1.90;;;18.90;52.30;;;;;;5037522;28;20179;-78
2022/06/18 04:39:17;;;;;;;2.70;1.70;;;19.00;1.00;;;;;;5019395;28;20184;-78
2022/06/18 04:41:43;;;;;;;3.03;1.87;;;19.10;40.10;;;;;;5036802;28;20196;-75
2022/06/18 04:44:08;;;;;;;2.40;1.90;;;19.00;99.90;;;;;;5019241;28;20176;-77
2022/06/18 04:46:34;;;;;;;4.93;1.90;;;19.10;99.90;;;;;;5018747;28;20184;-77
2022/06/18 04:48:59;;;;;;;5.40;2.23;;;19.10;1.00;;;;;;5036659;28;20211;-77
2022/06/18 04:51:25;;;;;;;7.90;2.00;;;19.10;99.90;;;;;;5036296;28;20200;-78
2022/06/18 04:53:51;;;;;;;4.83;2.10;;;19.20;99.90;;;;;;5036519;28;20249;-77
2022/06/18 04:56:16;;;;;;;4.53;2.10;;;19.20;1.00;;;;;;5036694;28;20183;-77
2022/06/18 04:58:42;;;;;;;5.20;1.93;;;19.20;1.00;;;;;;5039023;28;20176;-78
2022/06/18 05:01:13;;;;;;;4.40;2.00;;;19.20;92.60;;;;;;5022992;28;20540;-78
2022/06/18 05:03:38;;;;;;;2.90;1.57;;;19.30;97.20;;;;;;5037262;28;20181;-77
2022/06/18 05:06:04;;;;;;;3.10;1.70;;;19.20;1.00;;;;;;5037193;28;20181;-78
2022/06/18 05:08:29;;;;;;;1.60;1.47;;;19.30;1.00;;;;;;5037449;28;20168;-78
2022/06/18 05:10:55;;;;;;;3.07;1.80;;;19.30;1.00;;;;;;5020517;28;20678;-81
2022/06/18 05:13:21;;;;;;;2.27;1.90;;;19.40;47.80;;;;;;5020318;28;20173;-79
2022/06/18 05:15:49;;;;;;;2.00;1.53;;;19.40;1.00;;;;;;5038235;28;20585;-80
2022/06/18 05:18:16;;;;;;;2.63;1.60;;;19.50;1.00;;;;;;5020085;28;20176;-80
2022/06/18 05:20:42;;;;;;;2.70;2.10;;;19.50;1.00;;;;;;5037750;28;20188;-82
2022/06/18 05:23:11;;;;;;;2.57;1.60;;;19.50;99.90;;;;;;5038401;28;20165;-80
2022/06/18 05:25:37;;;;;;;4.70;1.90;;;19.60;80.40;;;;;;5037695;28;20661;-80
2022/06/18 05:28:02;;;;;;;2.73;1.70;;;19.60;1.00;;;;;;5037554;28;20168;-79
2022/06/18 05:30:28;;;;;;;6.17;1.70;;;19.60;1.00;;;;;;5036734;28;20175;-78
2022/06/18 05:32:53;;;;;;;3.33;2.00;;;19.60;1.00;;;;;;5037117;28;20207;-79
2022/06/18 05:35:19;;;;;;;3.50;1.63;;;19.70;1.00;;;;;;5020773;28;20219;-79
2022/06/18 05:37:46;;;;;;;2.57;1.53;;;19.80;1.00;;;;;;5039676;28;20172;-80
2022/06/18 05:40:13;;;;;;;6.47;1.80;;;19.80;1.00;;;;;;5038572;28;20661;-77
2022/06/18 05:42:39;;;;;;;2.50;1.90;;;19.90;1.00;;;;;;5037723;28;20636;-80
2022/06/18 05:45:05;;;;;;;2.33;1.70;;;19.90;1.00;;;;;;5038133;28;20199;-79
2022/06/18 05:47:32;;;;;;;2.60;1.73;;;19.90;1.00;;;;;;5039490;28;20180;-79
2022/06/18 05:49:59;;;;;;;3.87;1.93;;;20.00;1.00;;;;;;5039334;28;20187;-78
2022/06/18 05:52:27;;;;;;;4.63;1.90;;;19.90;1.00;;;;;;5020429;28;20262;-79
2022/06/18 05:54:53;;;;;;;3.77;1.97;;;20.10;1.00;;;;;;5023501;28;20176;-79
2022/06/18 05:57:19;;;;;;;3.73;1.90;;;20.10;1.00;;;;;;5044906;28;20263;-80
2022/06/18 05:59:45;;;;;;;4.13;2.07;;;20.30;99.90;;;;;;5037831;28;20610;-79
2022/06/18 06:02:12;;;;;;;4.63;1.90;;;20.30;99.90;;;;;;5037724;28;20224;-79
2022/06/18 06:04:39;;;;;;;2.33;1.70;;;20.50;1.00;;;;;;5037423;28;20216;-80
2022/06/18 06:07:06;;;;;;;6.37;2.17;;;20.50;99.90;;;;;;5019639;28;20183;-79
2022/06/18 06:12:15;;;;;;;2.57;1.93;;;20.70;99.90;;;;;;5054355;28;20239;-79
2022/06/18 06:14:41;;;;;;;3.77;2.37;;;20.70;1.00;;;;;;5038093;28;20196;-79
2022/06/18 06:17:16;;;;;;;5.83;1.90;;;20.80;1.00;;;;;;5044417;28;20176;-80
2022/06/18 06:19:42;;;;;;;2.77;1.93;;;20.90;1.00;;;;;;5036915;28;20160;-79
2022/06/18 06:22:07;;;;;;;3.93;2.00;;;21.00;99.90;;;;;;5037118;28;20561;-80
2022/06/18 06:24:33;;;;;;;2.97;1.73;;;21.10;99.90;;;;;;5036849;28;20231;-79
2022/06/18 06:26:58;;;;;;;5.90;1.83;;;21.20;99.90;;;;;;5018845;28;20181;-79
2022/06/18 06:29:24;;;;;;;3.20;1.80;;;21.50;12.70;;;;;;5019285;28;20184;-80
2022/06/18 06:31:49;;;;;;;8.00;1.77;;;21.70;1.00;;;;;;5036703;28;20236;-79
2022/06/18 06:34:15;;;;;;;4.10;1.70;;;21.80;1.00;;;;;;5037258;28;20180;-80
2022/06/18 06:36:40;;;;;;;4.97;1.77;;;22.00;99.90;;;;;;5018523;28;20180;-80
2022/06/18 06:39:06;;;;;;;4.13;2.13;;;22.10;99.90;;;;;;5037272;28;20580;-79
2022/06/18 06:41:32;;;;;;;3.07;1.90;;;22.10;99.90;;;;;;5018961;28;20312;-80
2022/06/18 06:43:58;;;;;;;2.90;1.83;;;22.10;99.90;;;;;;5019108;28;20540;-80
2022/06/18 06:46:24;;;;;;;2.57;1.90;;;22.20;99.90;;;;;;5038707;28;20180;-81
2022/06/18 06:48:49;;;;;;;4.20;1.60;;;22.30;99.90;;;;;;5036347;28;20273;-80
2022/06/18 06:51:19;;;;;;;6.37;1.80;;;22.30;99.90;;;;;;5036272;28;20204;-80
2022/06/18 06:53:44;;;;;;;4.37;2.00;;;22.50;1.00;;;;;;5036491;28;20168;-80
2022/06/18 06:58:56;;;;;;;5.47;2.07;;;22.60;94.40;;;;;;5055074;28;20236;-79
2022/06/18 07:01:22;;;;;;;6.50;2.00;;;22.70;1.00;;;;;;5049457;28;20200;-79
2022/06/18 07:03:47;;;;;;;6.73;2.10;;;22.90;1.00;;;;;;5017926;28;20622;-79
2022/06/18 07:06:13;;;;;;;5.17;2.10;;;23.10;99.90;;;;;;5035564;28;20189;-79
2022/06/18 07:08:39;;;;;;;6.90;2.07;;;23.20;99.90;;;;;;5036448;28;20183;-80
2022/06/18 07:11:06;;;;;;;3.33;1.90;;;23.20;99.90;;;;;;5041958;22;20216;-75
2022/06/18 07:13:31;;;;;;;8.03;1.93;;;23.20;1.00;;;;;;5013596;28;20192;-75
2022/06/18 07:15:57;;;;;;;2.97;1.83;;;23.30;99.90;;;;;;5013803;28;20173;-75
2022/06/18 07:18:26;;;;;;;3.57;2.07;;;23.50;99.90;;;;;;5013927;28;20178;-75
2022/06/18 07:20:51;;;;;;;2.53;1.80;;;23.50;99.90;;;;;;5013598;28;20665;-74
2022/06/18 07:23:17;;;;;;;3.37;2.10;;;23.50;99.90;;;;;;5013505;28;20287;-75
2022/06/18 07:25:43;;;;;;;3.33;1.83;;;23.50;99.90;;;;;;5013586;28;20200;-74
2022/06/18 07:28:09;;;;;;;3.17;1.80;;;23.50;65.60;;;;;;5013584;28;20177;-75
2022/06/18 07:30:37;;;;;;;3.17;1.83;;;23.70;99.90;;;;;;5013678;28;20176;-74
2022/06/18 07:33:03;;;;;;;6.47;2.20;;;23.70;99.90;;;;;;5013683;28;20698;-74
2022/06/18 07:35:31;;;;;;;4.13;2.10;;;23.70;99.90;;;;;;5013439;28;20180;-75
2022/06/18 07:37:58;;;;;;;3.00;1.50;;;23.90;35.80;;;;;;5012106;28;20184;-74
2022/06/18 07:40:38;;;;;;;3.63;2.23;;;24.00;1.00;;;;;;5013429;28;20172;-74
2022/06/18 07:43:07;;;;;;;4.77;2.10;;;24.10;20.10;;;;;;5013366;28;20247;-75
2022/06/18 07:45:33;;;;;;;4.37;1.70;;;24.10;1.00;;;;;;5013614;28;20266;-75
2022/06/18 07:47:58;;;;;;;5.33;2.10;;;24.20;1.00;;;;;;5011973;28;20258;-75
2022/06/18 07:50:24;;;;;;;3.10;1.73;;;24.30;1.00;;;;;;5011962;28;20746;-74
2022/06/18 07:52:50;;;;;;;7.30;2.20;;;24.30;1.00;;;;;;5011949;28;20205;-74
2022/06/18 07:55:23;;;;;;;4.73;2.00;;;24.40;4.90;;;;;;5013628;28;20172;-74
2022/06/18 07:57:49;;;;;;;6.90;2.20;;;24.40;99.90;;;;;;5013540;28;20169;-74
2022/06/18 08:00:18;;;;;;;6.30;2.33;;;24.30;99.90;;;;;;5013360;28;20639;-74
2022/06/18 08:02:44;;;;;;;5.63;2.07;;;24.40;99.90;;;;;;5013243;28;20670;-75
2022/06/18 08:05:12;;;;;;;5.17;2.13;;;24.50;99.90;;;;;;5012175;28;20231;-74
2022/06/18 08:07:38;;;;;;;7.33;2.00;;;24.70;1.00;;;;;;5013106;28;20223;-75
2022/06/18 08:10:06;;;;;;;4.27;2.20;;;24.80;1.00;;;;;;5011903;28;20267;-75
2022/06/18 08:12:33;;;;;;;6.38;2.20;;;24.90;1.00;;;;;;5013016;28;20208;-75
2022/06/18 08:14:59;;;;;;;5.03;2.07;;;24.90;1.00;;;;;;5013266;28;20169;-75
2022/06/18 08:17:25;;;;;;;5.57;2.53;;;25.00;1.00;;;;;;5013071;28;20173;-76
2022/06/18 08:19:51;;;;;;;4.25;2.10;;;25.00;1.00;;;;;;5013158;28;20269;-76
2022/06/18 08:22:17;;;;;;;7.40;2.20;;;25.10;1.00;;;;;;5013255;28;20272;-76
2022/06/18 08:24:43;;;;;;;4.33;1.93;;;25.10;1.00;;;;;;5013081;28;20741;-76
2022/06/18 08:27:09;;;;;;;8.63;1.97;;;25.20;1.00;;;;;;5013322;28;20180;-76
2022/06/18 08:29:35;;;;;;;4.00;1.90;;;25.30;1.00;;;;;;5011856;28;20216;-76
2022/06/18 08:32:02;;;;;;;8.23;1.98;;;25.30;1.00;;;;;;5013120;28;20197;-76
2022/06/18 08:34:27;;;;;;;6.20;2.43;;;25.40;1.00;;;;;;5012947;28;20171;-76
2022/06/18 08:36:53;;;;;;;4.50;2.20;;;25.40;1.00;;;;;;5013467;28;20252;-74
2022/06/18 08:39:19;;;;;;;8.20;2.38;;;25.40;1.00;;;;;;5013276;28;20643;-74
2022/06/18 08:42:19;;;;;;;7.25;2.20;;;25.60;1.00;;;;;;5013382;28;20251;-73
2022/06/18 08:45:13;;;;;;;7.38;2.08;;;25.70;99.90;;;;;;4962614;28;20207;-74
2022/06/18 08:48:00;;;;;;;4.32;2.03;;;25.70;1.00;;;;;;5013357;28;20154;-74
2022/06/18 08:50:47;;;;;;;5.43;2.80;;;25.90;1.00;;;;;;5012935;28;20235;-74
2022/06/18 08:53:18;;;;;;;5.47;2.30;;;25.90;1.00;;;;;;5012877;28;20223;-74
2022/06/18 08:56:04;;;;;;;5.75;2.60;;;26.00;99.90;;;;;;5013039;28;20546;-74
2022/06/18 08:58:54;;;;;;;10.48;2.80;;;26.20;99.90;;;;;;5012798;28;20172;-74
2022/06/18 09:01:29;;;;;;;10.77;2.45;;;26.40;99.90;;;;;;5013279;28;20189;-74
2022/06/18 09:04:31;;;;;;;4.75;2.33;;;26.50;1.00;;;;;;5012917;28;20184;-74
2022/06/18 09:07:18;;;;;;;5.78;2.30;;;26.60;1.00;;;;;;5013079;28;20208;-75
2022/06/18 09:09:58;;;;;;;3.85;2.25;;;26.70;99.90;;;;;;5012731;28;20220;-74
2022/06/18 09:12:28;;;;;;;7.30;2.38;;;26.90;1.00;;;;;;5012506;28;20209;-75
2022/06/18 09:15:10;;;;;;;6.68;2.47;;;26.90;1.00;;;;;;5012964;28;20570;-74
2022/06/18 09:17:47;;;;;;;4.78;2.10;;;27.00;1.00;;;;;;5012729;28;20153;-75
2022/06/18 09:20:28;;;;;;;4.38;2.45;;;27.10;1.00;;;;;;5014480;28;20673;-75
2022/06/18 09:22:57;;;;;;;6.30;2.38;;;27.10;1.00;;;;;;5014860;28;20574;-75
2022/06/18 09:25:27;;;;;;;7.22;2.35;;;27.30;1.00;;;;;;5014650;28;20173;-74
2022/06/18 09:28:03;;;;;;;7.75;3.22;;;27.30;1.00;;;;;;5016042;28;20216;-75
2022/06/18 09:30:38;;;;;;;7.30;2.75;;;27.30;1.00;;;;;;5016028;28;20169;-74
2022/06/18 09:33:12;;;;;;;4.22;1.98;;;27.40;1.00;;;;;;5016028;28;20200;-75
2022/06/18 09:35:55;;;;;;;8.90;2.20;;;27.50;1.00;;;;;;5015997;28;20204;-74
2022/06/18 09:38:36;;;;;;;6.15;2.25;;;27.60;1.00;;;;;;5014792;28;20169;-74
2022/06/18 09:41:15;;;;;;;7.10;2.80;;;27.70;99.90;;;;;;5016029;28;20161;-73
2022/06/18 09:43:59;;;;;;;6.72;2.10;;;27.90;99.90;;;;;;5015972;28;20164;-74
2022/06/18 09:46:28;;;;;;;8.18;2.20;;;27.90;99.90;;;;;;5014419;28;20181;-74
2022/06/18 09:48:54;;;;;;;5.85;2.22;;;28.00;99.90;;;;;;5014717;28;20187;-74
2022/06/18 09:51:28;;;;;;;5.38;2.53;;;28.10;99.90;;;;;;5014268;28;20212;-74
2022/06/18 09:54:01;;;;;;;8.43;2.55;;;28.20;99.90;;;;;;5015557;28;20156;-74
2022/06/18 09:56:33;;;;;;;6.10;2.47;;;28.30;99.90;;;;;;5016201;28;20608;-74
2022/06/18 09:59:06;;;;;;;6.50;2.08;;;28.30;99.90;;;;;;5015706;28;20165;-74
2022/06/18 10:01:40;;;;;;;7.70;2.10;;;28.30;99.90;;;;;;5015840;28;20283;-74
2022/06/18 10:06:52;;;;;;;6.75;1.85;;;28.40;34.00;;;;;;5015681;28;20703;-74
2022/06/18 10:09:36;;;;;;;4.63;2.28;;;28.60;1.00;;;;;;5015370;28;20204;-74
2022/06/18 10:12:18;;;;;;;4.60;2.42;;;28.70;1.00;;;;;;5015279;28;20240;-74
2022/06/18 10:14:44;;;;;;;6.35;2.10;;;28.80;1.00;;;;;;5015587;28;20175;-74
2022/06/18 10:17:30;;;;;;;9.93;2.20;;;28.80;1.00;;;;;;5015171;28;20196;-74
2022/06/18 10:20:02;;;;;;;5.65;2.10;;;29.00;1.00;;;;;;5015522;28;20157;-74
2022/06/18 10:22:55;;;;;;;8.38;2.30;;;29.00;1.00;;;;;;5015145;28;20204;-74
2022/06/18 10:25:42;;;;;;;5.93;1.95;;;29.00;1.00;;;;;;5015442;28;20158;-74
2022/06/18 10:28:23;;;;;;;6.45;2.10;;;29.00;1.00;;;;;;5015136;28;20161;-75
2022/06/18 10:31:07;;;;;;;11.68;2.47;;;29.10;1.00;;;;;;5013733;28;20177;-74
2022/06/18 10:33:42;;;;;;;6.20;2.05;;;29.30;1.00;;;;;;5014798;28;20158;-74
2022/06/18 10:36:30;;;;;;;8.68;2.17;;;29.40;1.00;;;;;;5014628;28;20276;-74
2022/06/18 10:39:10;;;;;;;4.43;2.08;;;29.40;1.00;;;;;;5014848;28;20619;-74
2022/06/18 10:41:59;;;;;;;7.88;2.20;;;29.40;1.00;;;;;;5014953;28;20200;-74
2022/06/18 10:44:40;;;;;;;8.55;2.28;;;29.50;1.00;;;;;;5013363;28;20169;-74
2022/06/18 10:47:12;;;;;;;5.53;2.00;;;29.50;1.00;;;;;;5013898;28;20171;-74
2022/06/18 10:49:38;;;;;;;8.55;2.05;;;29.50;1.00;;;;;;5013295;28;20172;-75
2022/06/18 10:52:04;;;;;;;8.50;2.38;;;29.60;1.00;;;;;;5013096;28;20211;-75
2022/06/18 10:54:36;;;;;;;14.15;3.33;;;29.70;1.00;;;;;;5014447;28;20188;-75
2022/06/18 10:57:03;;;;;;;5.60;2.50;;;29.90;1.00;;;;;;5014603;28;20161;-76
2022/06/18 10:59:35;;;;;;;9.65;2.45;;;30.00;1.00;;;;;;5012763;28;20181;-76
2022/06/18 11:02:31;;;;;;;7.18;2.58;;;30.00;1.00;;;;;;5014563;28;20251;-76
2022/06/18 11:05:00;;;;;;;5.53;2.17;;;30.00;1.00;;;;;;5012906;28;20203;-75
2022/06/18 11:07:31;;;;;;;5.45;2.05;;;30.00;1.00;;;;;;5014576;28;20180;-75
2022/06/18 11:10:00;;;;;;;8.05;2.05;;;30.10;1.00;;;;;;5013100;28;20700;-75
2022/06/18 11:12:32;;;;;;;8.15;2.53;;;30.20;1.00;;;;;;5013944;28;20221;-75
2022/06/18 11:14:58;;;;;;;6.63;2.33;;;30.20;1.00;;;;;;5012006;28;20169;-75
2022/06/18 11:17:29;;;;;;;9.27;2.15;;;30.30;1.00;;;;;;5012826;28;20227;-75
2022/06/18 11:20:05;;;;;;;5.80;2.80;;;30.30;1.00;;;;;;5014365;28;20180;-75
2022/06/18 11:22:30;;;;;;;8.45;2.38;;;30.30;1.00;;;;;;5014080;28;20589;-75
2022/06/18 11:25:02;;;;;;;10.32;2.80;;;30.40;1.00;;;;;;5014504;28;20180;-75
2022/06/18 11:27:32;;;;;;;12.00;2.47;;;30.50;1.00;;;;;;5012800;28;20184;-74
2022/06/18 11:29:58;;;;;;;8.40;2.40;;;30.50;1.00;;;;;;5014463;28;20546;-74
2022/06/18 11:32:42;;;;;;;8.25;2.72;;;30.50;1.00;;;;;;5012691;28;20698;-76
2022/06/18 11:35:23;;;;;;;8.45;2.63;;;30.60;1.00;;;;;;5014067;28;20161;-75
2022/06/18 11:37:59;;;;;;;7.22;2.15;;;30.70;1.00;;;;;;5014206;28;20200;-75
2022/06/18 11:40:26;;;;;;;7.80;2.60;;;30.80;1.00;;;;;;5012656;28;20231;-75
2022/06/18 11:42:53;;;;;;;7.75;2.80;;;30.80;1.00;;;;;;5013477;28;20197;-75
2022/06/18 11:45:43;;;;;;;10.73;2.70;;;31.00;1.00;;;;;;5013943;28;20177;-75
2022/06/18 11:48:40;;;;;;;9.73;2.97;;;31.00;1.00;;;;;;5013888;28;20188;-75
2022/06/18 11:51:28;;;;;;;8.02;2.85;;;31.00;1.00;;;;;;5013976;28;20224;-75
2022/06/18 11:54:18;;;;;;;6.15;2.35;;;31.10;1.00;;;;;;5012674;28;20652;-74
2022/06/18 11:56:50;;;;;;;9.70;2.20;;;31.00;1.00;;;;;;5013897;28;20157;-74
2022/06/18 11:59:26;;;;;;;8.73;2.22;;;31.10;1.00;;;;;;5012499;28;20203;-75
2022/06/18 12:01:57;;;;;;;6.63;2.60;;;31.20;1.00;;;;;;5012230;28;20287;-75
2022/06/18 12:04:37;;;;;;;12.77;2.63;;;31.20;1.00;;;;;;5013573;28;20172;-74
2022/06/18 12:07:13;;;;;;;6.93;2.22;;;31.30;1.00;;;;;;5013441;28;20164;-75
2022/06/18 12:09:40;;;;;;;9.65;2.53;;;31.40;1.00;;;;;;5012392;28;20196;-75
2022/06/18 12:12:29;;;;;;;9.25;2.70;;;31.40;1.00;;;;;;5011956;28;20221;-75
2022/06/18 12:15:00;;;;;;;9.23;2.50;;;31.50;1.00;;;;;;5013964;28;20220;-75
2022/06/18 12:17:36;;;;;;;6.10;2.53;;;31.60;1.00;;;;;;5013604;28;20173;-75
2022/06/18 12:20:24;;;;;;;10.95;2.80;;;31.60;1.00;;;;;;5013815;28;20212;-75
2022/06/18 12:23:05;;;;;;;11.32;2.63;;;31.60;1.00;;;;;;4984786;28;20737;-76
2022/06/18 12:25:42;;;;;;;9.65;2.47;;;31.60;1.00;;;;;;5012078;28;20220;-75
2022/06/18 12:28:32;;;;;;;9.57;2.30;;;31.70;1.00;;;;;;5013344;28;20187;-75
2022/06/18 12:31:05;;;;;;;7.15;2.50;;;31.80;1.00;;;;;;5011677;28;20157;-75
2022/06/18 12:33:36;;;;;;;7.13;2.30;;;31.90;1.00;;;;;;5013422;28;20521;-75
2022/06/18 12:36:14;;;;;;;9.55;2.30;;;31.80;1.00;;;;;;5011980;28;20157;-76
2022/06/18 12:38:51;;;;;;;10.90;2.50;;;31.80;1.00;;;;;;5013468;28;20517;-76
2022/06/18 12:41:21;;;;;;;10.60;2.63;;;31.80;1.00;;;;;;5013264;28;20196;-75
2022/06/18 12:43:52;;;;;;;8.10;2.78;;;31.90;1.00;;;;;;5013069;28;20200;-75
2022/06/18 12:46:32;;;;;;;10.35;2.35;;;31.90;1.00;;;;;;5013005;28;20180;-75
2022/06/18 12:49:40;;;;;;;7.40;2.35;;;32.00;1.00;;;;;;5013110;28;20172;-75
2022/06/18 12:52:27;;;;;;;5.55;2.33;;;32.00;1.00;;;;;;5004969;28;20231;-76
2022/06/18 12:55:07;;;;;;;5.55;2.58;;;32.10;1.00;;;;;;5014789;28;20165;-76
2022/06/18 12:57:59;;;;;;;14.52;2.70;;;32.20;1.00;;;;;;5017389;28;20697;-75
2022/06/18 13:00:36;;;;;;;12.10;3.10;;;32.10;1.00;;;;;;4993943;28;20185;-74
2022/06/18 13:03:21;;;;;;;4.97;2.30;;;32.20;1.00;;;;;;5016894;28;20196;-75
2022/06/18 13:05:50;;;;;;;7.00;2.42;;;32.20;1.00;;;;;;5017409;28;20173;-75
2022/06/18 13:08:58;;;;;;;9.55;2.33;;;32.30;1.00;;;;;;5015417;28;20673;-75
2022/06/18 13:11:46;;;;;;;5.88;2.38;;;32.30;1.00;;;;;;5016468;28;20217;-74
2022/06/18 13:14:25;;;;;;;7.28;2.65;;;32.40;1.00;;;;;;5042672;22;20760;-77
2022/06/18 13:17:13;;;;;;;8.23;2.50;;;32.50;1.00;;;;;;5019072;28;20164;-77
2022/06/18 13:19:44;;;;;;;9.10;2.95;;;32.50;1.00;;;;;;5018807;28;20572;-77
2022/06/18 13:22:10;;;;;;;9.25;2.63;;;32.50;1.00;;;;;;5016487;28;20169;-77
2022/06/18 13:30:39;;;;;;;12.13;2.63;;;32.90;1.00;;;;;;5016829;28;20678;-77
2022/06/18 13:33:25;;;;;;;10.70;2.63;;;33.00;1.00;;;;;;5016595;28;20644;-76
2022/06/18 13:36:03;;;;;;;12.23;3.03;;;33.00;1.00;;;;;;5023394;28;20166;-77
2022/06/18 13:38:54;;;;;;;9.27;2.80;;;33.00;1.00;;;;;;5017602;28;20158;-76